Minto Bridge, Canada
Current Conditions -  °F | °C
As of 11:00 PM on Wednesday 17 Dec 2014 (Local Time) from CYMA Reporting Station
Overcast Overcast  
Wind Chill:   Ceiling: 4000
Heat Index:   Visibility: 20mi
Dew Point:   Wind: 2mph
Humidity: 85%   Direction: NA
Pressure: 29.7"   Gusts: NA
Location:  63.7°N, 135.85°W
Report Text: CYMA 180700Z VRB02KT 20SM FEW004 SCT020 OVC040 M13/M15 A2970 RMK ST2SC2SC4 SLP103
Loading
Personal Weather Stations






























Interactive Weather Map New forecast layout! Learn more

10-Day Weather Forecast

Advertisements
Track Severe Weather on mobile